West Ridge, Arkansas
Current Conditions -  °F | °C
As of 7:53 PM on Wednesday 22 Oct 2014 (Local Time) from KJBR Reporting Station
Clear Clear  
Wind Chill: 52°   Ceiling: Unl
Heat Index: 52°   Visibility: 10mi
Dew Point: 46°   Wind: 3mph
Humidity: 80%   Direction: 40°NE
Pressure: 30.18"   Gusts: NA
Location:  35.68°N, 90.26°W
Report Text: KJBR 230053Z AUTO 04003KT 10SM CLR 11/08 A3018 RMK AO2 SLP220 T01110078
Loading
Personal Weather Stations






























Interactive Weather Map
Tropical Storm Tracking
New forecast layout! Learn more

10-Day Weather Forecast

Advertisements
Track Severe Weather on mobile